sensor_id;sensor_type;location;lat;lon;timestamp;P1;durP1;ratioP1;P2;durP2;ratioP2
6131;SDS011;3097;42.692;23.278;2023-02-22T00:00:36;8.23;;;6.47;;
6131;SDS011;3097;42.692;23.278;2023-02-22T00:03:09;8.47;;;5.77;;
6131;SDS011;3097;42.692;23.278;2023-02-22T00:05:36;8.70;;;6.23;;
6131;SDS011;3097;42.692;23.278;2023-02-22T00:08:05;10.63;;;7.00;;
6131;SDS011;3097;42.692;23.278;2023-02-22T00:10:33;13.73;;;7.30;;
6131;SDS011;3097;42.692;23.278;2023-02-22T00:13:02;17.07;;;8.87;;
6131;SDS011;3097;42.692;23.278;2023-02-22T00:15:29;14.90;;;8.07;;
6131;SDS011;3097;42.692;23.278;2023-02-22T00:17:55;13.10;;;7.77;;
6131;SDS011;3097;42.692;23.278;2023-02-22T00:20:21;15.87;;;8.90;;
6131;SDS011;3097;42.692;23.278;2023-02-22T00:22:47;17.77;;;9.07;;
6131;SDS011;3097;42.692;23.278;2023-02-22T00:25:17;19.17;;;9.80;;
6131;SDS011;3097;42.692;23.278;2023-02-22T00:27:48;16.00;;;8.80;;
6131;SDS011;3097;42.692;23.278;2023-02-22T00:30:19;17.17;;;9.30;;
6131;SDS011;3097;42.692;23.278;2023-02-22T00:32:47;13.43;;;8.83;;
6131;SDS011;3097;42.692;23.278;2023-02-22T00:35:14;14.60;;;8.37;;
6131;SDS011;3097;42.692;23.278;2023-02-22T00:37:41;13.37;;;8.80;;
6131;SDS011;3097;42.692;23.278;2023-02-22T00:40:10;18.17;;;9.40;;
6131;SDS011;3097;42.692;23.278;2023-02-22T00:42:38;15.80;;;9.80;;
6131;SDS011;3097;42.692;23.278;2023-02-22T00:45:04;16.47;;;8.83;;
6131;SDS011;3097;42.692;23.278;2023-02-22T00:47:31;17.50;;;8.77;;
6131;SDS011;3097;42.692;23.278;2023-02-22T00:49:57;18.80;;;8.70;;
6131;SDS011;3097;42.692;23.278;2023-02-22T00:52:22;17.03;;;8.90;;
6131;SDS011;3097;42.692;23.278;2023-02-22T00:54:48;15.23;;;8.37;;
6131;SDS011;3097;42.692;23.278;2023-02-22T00:57:13;15.53;;;7.90;;
6131;SDS011;3097;42.692;23.278;2023-02-22T00:59:39;15.13;;;7.93;;
6131;SDS011;3097;42.692;23.278;2023-02-22T01:02:04;16.83;;;8.97;;
6131;SDS011;3097;42.692;23.278;2023-02-22T01:04:29;13.70;;;8.30;;
6131;SDS011;3097;42.692;23.278;2023-02-22T01:06:55;15.53;;;8.47;;
6131;SDS011;3097;42.692;23.278;2023-02-22T01:09:20;13.70;;;8.70;;
6131;SDS011;3097;42.692;23.278;2023-02-22T01:11:47;14.07;;;8.33;;
6131;SDS011;3097;42.692;23.278;2023-02-22T01:14:19;14.47;;;8.20;;
6131;SDS011;3097;42.692;23.278;2023-02-22T01:16:45;16.00;;;8.70;;
6131;SDS011;3097;42.692;23.278;2023-02-22T01:19:10;17.77;;;8.70;;
6131;SDS011;3097;42.692;23.278;2023-02-22T01:21:36;15.37;;;8.50;;
6131;SDS011;3097;42.692;23.278;2023-02-22T01:24:04;16.33;;;8.17;;
6131;SDS011;3097;42.692;23.278;2023-02-22T01:26:29;11.93;;;7.97;;
6131;SDS011;3097;42.692;23.278;2023-02-22T01:28:55;16.17;;;8.83;;
6131;SDS011;3097;42.692;23.278;2023-02-22T01:31:20;16.37;;;9.17;;
6131;SDS011;3097;42.692;23.278;2023-02-22T01:33:48;25.87;;;11.97;;
6131;SDS011;3097;42.692;23.278;2023-02-22T01:36:15;26.27;;;12.63;;
6131;SDS011;3097;42.692;23.278;2023-02-22T01:38:40;27.00;;;12.80;;
6131;SDS011;3097;42.692;23.278;2023-02-22T01:41:06;27.23;;;12.83;;
6131;SDS011;3097;42.692;23.278;2023-02-22T01:43:32;28.40;;;12.93;;
6131;SDS011;3097;42.692;23.278;2023-02-22T01:48:34;25.13;;;11.87;;
6131;SDS011;3097;42.692;23.278;2023-02-22T01:51:09;22.80;;;12.50;;
6131;SDS011;3097;42.692;23.278;2023-02-22T01:53:49;29.63;;;13.37;;
6131;SDS011;3097;42.692;23.278;2023-02-22T01:56:19;27.37;;;13.47;;
6131;SDS011;3097;42.692;23.278;2023-02-22T01:58:57;29.47;;;14.27;;
6131;SDS011;3097;42.692;23.278;2023-02-22T02:01:26;28.80;;;14.23;;
6131;SDS011;3097;42.692;23.278;2023-02-22T02:03:57;29.37;;;14.63;;
6131;SDS011;3097;42.692;23.278;2023-02-22T02:06:26;30.57;;;15.93;;
6131;SDS011;3097;42.692;23.278;2023-02-22T02:08:59;28.90;;;14.60;;
6131;SDS011;3097;42.692;23.278;2023-02-22T02:11:30;31.73;;;14.77;;
6131;SDS011;3097;42.692;23.278;2023-02-22T02:13:57;28.63;;;13.93;;
6131;SDS011;3097;42.692;23.278;2023-02-22T02:16:34;30.33;;;14.27;;
6131;SDS011;3097;42.692;23.278;2023-02-22T02:19:04;32.60;;;14.40;;
6131;SDS011;3097;42.692;23.278;2023-02-22T02:27:13;28.07;;;14.60;;
6131;SDS011;3097;42.692;23.278;2023-02-22T02:35:02;30.10;;;14.07;;
6131;SDS011;3097;42.692;23.278;2023-02-22T02:40:26;30.93;;;14.17;;
6131;SDS011;3097;42.692;23.278;2023-02-22T02:42:59;28.10;;;13.57;;
6131;SDS011;3097;42.692;23.278;2023-02-22T02:45:35;27.10;;;13.80;;
6131;SDS011;3097;42.692;23.278;2023-02-22T02:48:08;24.67;;;12.97;;
6131;SDS011;3097;42.692;23.278;2023-02-22T02:50:36;26.73;;;14.03;;
6131;SDS011;3097;42.692;23.278;2023-02-22T02:53:12;38.90;;;14.03;;
6131;SDS011;3097;42.692;23.278;2023-02-22T02:55:41;25.53;;;12.87;;
6131;SDS011;3097;42.692;23.278;2023-02-22T02:58:07;23.43;;;13.37;;
6131;SDS011;3097;42.692;23.278;2023-02-22T03:00:35;21.13;;;9.97;;
6131;SDS011;3097;42.692;23.278;2023-02-22T03:03:23;16.53;;;9.50;;
6131;SDS011;3097;42.692;23.278;2023-02-22T03:06:11;18.03;;;7.77;;
6131;SDS011;3097;42.692;23.278;2023-02-22T03:08:46;16.40;;;9.20;;
6131;SDS011;3097;42.692;23.278;2023-02-22T03:11:22;13.77;;;7.40;;
6131;SDS011;3097;42.692;23.278;2023-02-22T03:16:29;13.13;;;7.43;;
6131;SDS011;3097;42.692;23.278;2023-02-22T03:21:47;14.70;;;7.83;;
6131;SDS011;3097;42.692;23.278;2023-02-22T03:24:21;13.07;;;7.83;;
6131;SDS011;3097;42.692;23.278;2023-02-22T03:27:02;11.10;;;7.13;;
6131;SDS011;3097;42.692;23.278;2023-02-22T03:29:29;11.07;;;6.07;;
6131;SDS011;3097;42.692;23.278;2023-02-22T03:32:00;9.63;;;6.20;;
6131;SDS011;3097;42.692;23.278;2023-02-22T03:34:32;10.03;;;6.60;;
6131;SDS011;3097;42.692;23.278;2023-02-22T03:37:02;10.33;;;6.73;;
6131;SDS011;3097;42.692;23.278;2023-02-22T03:39:42;11.63;;;6.70;;
6131;SDS011;3097;42.692;23.278;2023-02-22T03:42:12;11.17;;;6.27;;
6131;SDS011;3097;42.692;23.278;2023-02-22T03:44:42;15.27;;;6.67;;
6131;SDS011;3097;42.692;23.278;2023-02-22T03:47:12;13.50;;;7.60;;
6131;SDS011;3097;42.692;23.278;2023-02-22T03:49:50;13.83;;;7.93;;
6131;SDS011;3097;42.692;23.278;2023-02-22T03:52:19;14.13;;;8.10;;
6131;SDS011;3097;42.692;23.278;2023-02-22T03:54:48;11.93;;;7.17;;
6131;SDS011;3097;42.692;23.278;2023-02-22T03:57:24;11.27;;;7.10;;
6131;SDS011;3097;42.692;23.278;2023-02-22T03:59:52;12.53;;;6.27;;
6131;SDS011;3097;42.692;23.278;2023-02-22T04:02:18;9.27;;;6.80;;
6131;SDS011;3097;42.692;23.278;2023-02-22T04:04:46;12.80;;;7.60;;
6131;SDS011;3097;42.692;23.278;2023-02-22T04:07:12;10.10;;;6.97;;
6131;SDS011;3097;42.692;23.278;2023-02-22T04:09:38;14.37;;;6.50;;
6131;SDS011;3097;42.692;23.278;2023-02-22T04:12:03;15.37;;;7.87;;
6131;SDS011;3097;42.692;23.278;2023-02-22T04:14:29;9.20;;;7.23;;
6131;SDS011;3097;42.692;23.278;2023-02-22T04:16:54;11.60;;;7.03;;
6131;SDS011;3097;42.692;23.278;2023-02-22T04:19:20;13.47;;;8.10;;
6131;SDS011;3097;42.692;23.278;2023-02-22T04:21:46;15.80;;;8.57;;
6131;SDS011;3097;42.692;23.278;2023-02-22T04:24:12;22.90;;;11.77;;
6131;SDS011;3097;42.692;23.278;2023-02-22T04:26:37;34.20;;;15.97;;
6131;SDS011;3097;42.692;23.278;2023-02-22T04:29:03;35.07;;;13.73;;
6131;SDS011;3097;42.692;23.278;2023-02-22T04:31:29;28.30;;;14.33;;
6131;SDS011;3097;42.692;23.278;2023-02-22T04:33:55;39.17;;;17.50;;
6131;SDS011;3097;42.692;23.278;2023-02-22T04:36:21;46.73;;;22.50;;
6131;SDS011;3097;42.692;23.278;2023-02-22T04:38:47;65.60;;;27.23;;
6131;SDS011;3097;42.692;23.278;2023-02-22T04:41:12;65.03;;;27.83;;
6131;SDS011;3097;42.692;23.278;2023-02-22T04:43:38;66.03;;;27.90;;
6131;SDS011;3097;42.692;23.278;2023-02-22T04:46:03;67.57;;;26.43;;
6131;SDS011;3097;42.692;23.278;2023-02-22T04:48:29;68.50;;;27.63;;
6131;SDS011;3097;42.692;23.278;2023-02-22T04:50:54;61.87;;;25.67;;
6131;SDS011;3097;42.692;23.278;2023-02-22T04:53:20;67.33;;;27.03;;
6131;SDS011;3097;42.692;23.278;2023-02-22T04:55:45;72.97;;;28.87;;
6131;SDS011;3097;42.692;23.278;2023-02-22T04:58:11;66.90;;;28.00;;
6131;SDS011;3097;42.692;23.278;2023-02-22T05:00:36;74.83;;;28.40;;
6131;SDS011;3097;42.692;23.278;2023-02-22T05:03:02;69.63;;;30.20;;
6131;SDS011;3097;42.692;23.278;2023-02-22T05:05:27;90.70;;;36.20;;
6131;SDS011;3097;42.692;23.278;2023-02-22T05:07:53;89.03;;;36.30;;
6131;SDS011;3097;42.692;23.278;2023-02-22T05:10:18;94.70;;;36.87;;
6131;SDS011;3097;42.692;23.278;2023-02-22T05:12:44;80.97;;;33.73;;
6131;SDS011;3097;42.692;23.278;2023-02-22T05:15:10;69.83;;;29.43;;
6131;SDS011;3097;42.692;23.278;2023-02-22T05:17:39;59.43;;;25.93;;
6131;SDS011;3097;42.692;23.278;2023-02-22T05:20:05;59.80;;;27.87;;
6131;SDS011;3097;42.692;23.278;2023-02-22T05:22:32;67.30;;;28.80;;
6131;SDS011;3097;42.692;23.278;2023-02-22T05:24:58;68.60;;;30.40;;
6131;SDS011;3097;42.692;23.278;2023-02-22T05:27:24;63.70;;;26.57;;
6131;SDS011;3097;42.692;23.278;2023-02-22T05:29:49;48.33;;;22.03;;
6131;SDS011;3097;42.692;23.278;2023-02-22T05:32:14;40.80;;;18.03;;
6131;SDS011;3097;42.692;23.278;2023-02-22T05:34:40;38.87;;;17.23;;
6131;SDS011;3097;42.692;23.278;2023-02-22T05:37:05;35.63;;;18.67;;
6131;SDS011;3097;42.692;23.278;2023-02-22T05:39:31;43.87;;;20.87;;
6131;SDS011;3097;42.692;23.278;2023-02-22T05:41:56;59.13;;;25.10;;
6131;SDS011;3097;42.692;23.278;2023-02-22T05:44:22;56.27;;;23.17;;
6131;SDS011;3097;42.692;23.278;2023-02-22T05:46:48;53.57;;;24.43;;
6131;SDS011;3097;42.692;23.278;2023-02-22T05:49:14;66.43;;;27.87;;
6131;SDS011;3097;42.692;23.278;2023-02-22T05:51:40;59.13;;;27.33;;
6131;SDS011;3097;42.692;23.278;2023-02-22T05:54:05;52.47;;;24.73;;
6131;SDS011;3097;42.692;23.278;2023-02-22T05:56:31;49.03;;;22.53;;
6131;SDS011;3097;42.692;23.278;2023-02-22T05:58:56;50.10;;;21.13;;
6131;SDS011;3097;42.692;23.278;2023-02-22T06:01:22;53.13;;;21.37;;
6131;SDS011;3097;42.692;23.278;2023-02-22T06:03:48;53.23;;;22.90;;
6131;SDS011;3097;42.692;23.278;2023-02-22T06:06:15;49.20;;;20.33;;
6131;SDS011;3097;42.692;23.278;2023-02-22T06:08:41;45.97;;;20.80;;
6131;SDS011;3097;42.692;23.278;2023-02-22T06:11:07;53.37;;;21.67;;
6131;SDS011;3097;42.692;23.278;2023-02-22T06:13:34;45.20;;;18.80;;
6131;SDS011;3097;42.692;23.278;2023-02-22T06:16:00;35.40;;;17.07;;
6131;SDS011;3097;42.692;23.278;2023-02-22T06:18:25;36.30;;;16.40;;
6131;SDS011;3097;42.692;23.278;2023-02-22T06:20:51;25.90;;;12.60;;
6131;SDS011;3097;42.692;23.278;2023-02-22T06:23:17;29.73;;;14.47;;
6131;SDS011;3097;42.692;23.278;2023-02-22T06:25:43;31.63;;;15.10;;
6131;SDS011;3097;42.692;23.278;2023-02-22T06:28:09;26.43;;;15.17;;
6131;SDS011;3097;42.692;23.278;2023-02-22T06:30:34;27.93;;;14.43;;
6131;SDS011;3097;42.692;23.278;2023-02-22T06:33:00;25.60;;;13.93;;
6131;SDS011;3097;42.692;23.278;2023-02-22T06:35:25;22.97;;;12.47;;
6131;SDS011;3097;42.692;23.278;2023-02-22T06:37:51;21.03;;;12.27;;
6131;SDS011;3097;42.692;23.278;2023-02-22T06:40:17;15.30;;;9.73;;
6131;SDS011;3097;42.692;23.278;2023-02-22T06:42:42;21.47;;;10.97;;
6131;SDS011;3097;42.692;23.278;2023-02-22T06:45:08;22.67;;;11.87;;
6131;SDS011;3097;42.692;23.278;2023-02-22T06:47:37;26.07;;;14.97;;
6131;SDS011;3097;42.692;23.278;2023-02-22T06:50:04;37.83;;;20.07;;
6131;SDS011;3097;42.692;23.278;2023-02-22T06:52:30;39.90;;;18.80;;
6131;SDS011;3097;42.692;23.278;2023-02-22T06:54:55;32.03;;;14.60;;
6131;SDS011;3097;42.692;23.278;2023-02-22T06:57:20;21.97;;;12.67;;
6131;SDS011;3097;42.692;23.278;2023-02-22T06:59:46;19.07;;;11.30;;
6131;SDS011;3097;42.692;23.278;2023-02-22T07:02:12;23.83;;;12.00;;
6131;SDS011;3097;42.692;23.278;2023-02-22T07:04:38;19.70;;;10.07;;
6131;SDS011;3097;42.692;23.278;2023-02-22T07:07:04;16.70;;;8.30;;
6131;SDS011;3097;42.692;23.278;2023-02-22T07:09:30;13.40;;;8.23;;
6131;SDS011;3097;42.692;23.278;2023-02-22T07:11:55;14.70;;;8.30;;
6131;SDS011;3097;42.692;23.278;2023-02-22T07:14:39;12.57;;;7.77;;
6131;SDS011;3097;42.692;23.278;2023-02-22T07:17:05;18.77;;;8.70;;
6131;SDS011;3097;42.692;23.278;2023-02-22T07:19:31;17.97;;;10.17;;
6131;SDS011;3097;42.692;23.278;2023-02-22T07:21:57;21.30;;;10.87;;
6131;SDS011;3097;42.692;23.278;2023-02-22T07:24:23;18.13;;;11.00;;
6131;SDS011;3097;42.692;23.278;2023-02-22T07:26:51;20.37;;;11.27;;
6131;SDS011;3097;42.692;23.278;2023-02-22T07:29:18;20.47;;;10.87;;
6131;SDS011;3097;42.692;23.278;2023-02-22T07:31:43;19.57;;;10.37;;
6131;SDS011;3097;42.692;23.278;2023-02-22T07:34:08;18.53;;;10.90;;
6131;SDS011;3097;42.692;23.278;2023-02-22T07:36:34;15.97;;;9.93;;
6131;SDS011;3097;42.692;23.278;2023-02-22T07:38:59;16.43;;;10.90;;
6131;SDS011;3097;42.692;23.278;2023-02-22T07:41:25;17.57;;;12.00;;
6131;SDS011;3097;42.692;23.278;2023-02-22T07:43:50;20.23;;;12.47;;
6131;SDS011;3097;42.692;23.278;2023-02-22T07:46:16;21.87;;;12.33;;
6131;SDS011;3097;42.692;23.278;2023-02-22T07:48:41;27.07;;;14.17;;
6131;SDS011;3097;42.692;23.278;2023-02-22T07:51:06;21.45;;;14.30;;
6131;SDS011;3097;42.692;23.278;2023-02-22T07:53:33;22.10;;;14.23;;
6131;SDS011;3097;42.692;23.278;2023-02-22T07:56:00;23.60;;;15.60;;
6131;SDS011;3097;42.692;23.278;2023-02-22T07:58:27;25.02;;;16.52;;
6131;SDS011;3097;42.692;23.278;2023-02-22T08:00:54;24.02;;;16.13;;
6131;SDS011;3097;42.692;23.278;2023-02-22T08:03:21;25.25;;;16.50;;
6131;SDS011;3097;42.692;23.278;2023-02-22T08:05:50;22.63;;;14.68;;
6131;SDS011;3097;42.692;23.278;2023-02-22T08:08:17;24.35;;;14.95;;
6131;SDS011;3097;42.692;23.278;2023-02-22T08:10:43;20.55;;;14.90;;
6131;SDS011;3097;42.692;23.278;2023-02-22T08:13:09;26.13;;;16.15;;
6131;SDS011;3097;42.692;23.278;2023-02-22T08:15:36;20.25;;;14.75;;
6131;SDS011;3097;42.692;23.278;2023-02-22T08:18:04;24.27;;;15.40;;
6131;SDS011;3097;42.692;23.278;2023-02-22T08:20:36;22.23;;;15.30;;
6131;SDS011;3097;42.692;23.278;2023-02-22T08:23:02;23.20;;;14.10;;
6131;SDS011;3097;42.692;23.278;2023-02-22T08:25:29;25.37;;;13.60;;
6131;SDS011;3097;42.692;23.278;2023-02-22T08:28:02;20.07;;;13.20;;
6131;SDS011;3097;42.692;23.278;2023-02-22T08:30:30;19.57;;;12.83;;
6131;SDS011;3097;42.692;23.278;2023-02-22T08:32:56;21.63;;;11.40;;
6131;SDS011;3097;42.692;23.278;2023-02-22T08:35:23;20.63;;;12.10;;
6131;SDS011;3097;42.692;23.278;2023-02-22T08:37:51;14.70;;;10.87;;
6131;SDS011;3097;42.692;23.278;2023-02-22T08:40:20;25.67;;;11.30;;
6131;SDS011;3097;42.692;23.278;2023-02-22T08:42:47;16.30;;;11.37;;
6131;SDS011;3097;42.692;23.278;2023-02-22T08:45:13;15.27;;;10.37;;
6131;SDS011;3097;42.692;23.278;2023-02-22T08:47:39;16.77;;;9.30;;
6131;SDS011;3097;42.692;23.278;2023-02-22T08:50:05;19.80;;;10.67;;
6131;SDS011;3097;42.692;23.278;2023-02-22T08:52:32;10.17;;;7.87;;
6131;SDS011;3097;42.692;23.278;2023-02-22T08:54:57;12.57;;;8.53;;
6131;SDS011;3097;42.692;23.278;2023-02-22T08:57:22;11.07;;;7.73;;
6131;SDS011;3097;42.692;23.278;2023-02-22T08:59:48;10.70;;;7.73;;
6131;SDS011;3097;42.692;23.278;2023-02-22T09:02:15;12.20;;;7.80;;
6131;SDS011;3097;42.692;23.278;2023-02-22T09:04:42;11.80;;;8.43;;
6131;SDS011;3097;42.692;23.278;2023-02-22T09:07:07;15.80;;;7.90;;
6131;SDS011;3097;42.692;23.278;2023-02-22T09:09:33;17.77;;;8.43;;
6131;SDS011;3097;42.692;23.278;2023-02-22T09:11:58;16.23;;;8.40;;
6131;SDS011;3097;42.692;23.278;2023-02-22T09:14:24;13.70;;;7.50;;
6131;SDS011;3097;42.692;23.278;2023-02-22T09:16:49;11.20;;;7.50;;
6131;SDS011;3097;42.692;23.278;2023-02-22T09:19:14;8.47;;;6.03;;
6131;SDS011;3097;42.692;23.278;2023-02-22T09:21:40;14.87;;;6.17;;
6131;SDS011;3097;42.692;23.278;2023-02-22T09:24:06;9.07;;;6.00;;
6131;SDS011;3097;42.692;23.278;2023-02-22T09:26:35;6.80;;;5.50;;
6131;SDS011;3097;42.692;23.278;2023-02-22T09:29:07;5.60;;;5.07;;
6131;SDS011;3097;42.692;23.278;2023-02-22T09:31:36;4.87;;;4.30;;
6131;SDS011;3097;42.692;23.278;2023-02-22T09:34:04;4.03;;;3.70;;
6131;SDS011;3097;42.692;23.278;2023-02-22T09:36:40;5.00;;;4.40;;
6131;SDS011;3097;42.692;23.278;2023-02-22T09:39:07;6.83;;;4.87;;
6131;SDS011;3097;42.692;23.278;2023-02-22T09:41:41;4.83;;;4.10;;
6131;SDS011;3097;42.692;23.278;2023-02-22T09:44:19;4.53;;;4.13;;
6131;SDS011;3097;42.692;23.278;2023-02-22T09:46:53;4.60;;;4.13;;
6131;SDS011;3097;42.692;23.278;2023-02-22T09:52:03;8.97;;;5.70;;
6131;SDS011;3097;42.692;23.278;2023-02-22T09:54:32;5.70;;;3.77;;
6131;SDS011;3097;42.692;23.278;2023-02-22T09:57:04;4.73;;;3.33;;
6131;SDS011;3097;42.692;23.278;2023-02-22T09:59:34;3.80;;;3.47;;
6131;SDS011;3097;42.692;23.278;2023-02-22T10:02:13;3.60;;;3.30;;
6131;SDS011;3097;42.692;23.278;2023-02-22T10:04:48;4.03;;;3.73;;
6131;SDS011;3097;42.692;23.278;2023-02-22T10:07:27;5.03;;;4.20;;
6131;SDS011;3097;42.692;23.278;2023-02-22T10:10:13;5.13;;;3.20;;
6131;SDS011;3097;42.692;23.278;2023-02-22T10:12:47;5.70;;;3.77;;
6131;SDS011;3097;42.692;23.278;2023-02-22T10:15:30;9.80;;;3.87;;
6131;SDS011;3097;42.692;23.278;2023-02-22T10:21:06;5.53;;;4.90;;
6131;SDS011;3097;42.692;23.278;2023-02-22T10:26:50;3.73;;;3.37;;
6131;SDS011;3097;42.692;23.278;2023-02-22T10:29:25;4.27;;;3.03;;
6131;SDS011;3097;42.692;23.278;2023-02-22T10:31:54;5.67;;;3.60;;
6131;SDS011;3097;42.692;23.278;2023-02-22T10:34:24;5.73;;;4.07;;
6131;SDS011;3097;42.692;23.278;2023-02-22T10:37:37;4.10;;;3.57;;
6131;SDS011;3097;42.692;23.278;2023-02-22T10:39:40;4.27;;;3.87;;
6131;SDS011;3097;42.692;23.278;2023-02-22T10:42:06;5.20;;;4.03;;
6131;SDS011;3097;42.692;23.278;2023-02-22T10:44:36;6.03;;;4.07;;
6131;SDS011;3097;42.692;23.278;2023-02-22T10:47:07;4.70;;;4.30;;
6131;SDS011;3097;42.692;23.278;2023-02-22T10:49:36;7.83;;;4.40;;
6131;SDS011;3097;42.692;23.278;2023-02-22T10:52:10;4.33;;;3.63;;
6131;SDS011;3097;42.692;23.278;2023-02-22T10:54:49;9.33;;;3.30;;
6131;SDS011;3097;42.692;23.278;2023-02-22T10:57:19;4.30;;;3.90;;
6131;SDS011;3097;42.692;23.278;2023-02-22T10:59:47;5.97;;;4.20;;
6131;SDS011;3097;42.692;23.278;2023-02-22T11:04:48;4.20;;;3.23;;
6131;SDS011;3097;42.692;23.278;2023-02-22T11:10:01;4.33;;;3.93;;
6131;SDS011;3097;42.692;23.278;2023-02-22T11:12:32;5.27;;;3.40;;
6131;SDS011;3097;42.692;23.278;2023-02-22T11:15:44;3.67;;;3.23;;
6131;SDS011;3097;42.692;23.278;2023-02-22T11:17:54;3.57;;;3.23;;
6131;SDS011;3097;42.692;23.278;2023-02-22T11:20:25;5.17;;;3.30;;
6131;SDS011;3097;42.692;23.278;2023-02-22T11:22:57;3.90;;;3.50;;
6131;SDS011;3097;42.692;23.278;2023-02-22T11:25:26;4.43;;;3.33;;
6131;SDS011;3097;42.692;23.278;2023-02-22T11:27:54;3.00;;;2.70;;
6131;SDS011;3097;42.692;23.278;2023-02-22T11:30:32;8.60;;;2.70;;
6131;SDS011;3097;42.692;23.278;2023-02-22T11:33:21;3.30;;;2.93;;
6131;SDS011;3097;42.692;23.278;2023-02-22T11:38:20;3.37;;;3.07;;
6131;SDS011;3097;42.692;23.278;2023-02-22T11:41:03;4.30;;;2.90;;
6131;SDS011;3097;42.692;23.278;2023-02-22T11:43:28;2.87;;;2.60;;
6131;SDS011;3097;42.692;23.278;2023-02-22T11:45:59;5.43;;;3.07;;
6131;SDS011;3097;42.692;23.278;2023-02-22T11:48:33;2.70;;;2.50;;
6131;SDS011;3097;42.692;23.278;2023-02-22T11:51:16;2.90;;;2.70;;
6131;SDS011;3097;42.692;23.278;2023-02-22T11:56:47;4.67;;;3.13;;
6131;SDS011;3097;42.692;23.278;2023-02-22T12:01:51;2.97;;;2.67;;
6131;SDS011;3097;42.692;23.278;2023-02-22T12:21:02;3.70;;;3.30;;
6131;SDS011;3097;42.692;23.278;2023-02-22T12:26:05;4.47;;;3.43;;
6131;SDS011;3097;42.692;23.278;2023-02-22T12:31:21;5.00;;;3.53;;
6131;SDS011;3097;42.692;23.278;2023-02-22T12:36:55;2.87;;;2.67;;
6131;SDS011;3097;42.692;23.278;2023-02-22T12:45:20;2.97;;;2.77;;
6131;SDS011;3097;42.692;23.278;2023-02-22T12:47:51;2.33;;;2.13;;
6131;SDS011;3097;42.692;23.278;2023-02-22T12:50:26;3.10;;;2.90;;
6131;SDS011;3097;42.692;23.278;2023-02-22T12:53:11;2.90;;;2.70;;
6131;SDS011;3097;42.692;23.278;2023-02-22T12:55:40;3.37;;;2.47;;
6131;SDS011;3097;42.692;23.278;2023-02-22T12:58:22;2.90;;;2.70;;
6131;SDS011;3097;42.692;23.278;2023-02-22T13:01:13;3.47;;;3.17;;
6131;SDS011;3097;42.692;23.278;2023-02-22T13:03:44;3.23;;;2.93;;
6131;SDS011;3097;42.692;23.278;2023-02-22T13:09:00;3.03;;;2.70;;
6131;SDS011;3097;42.692;23.278;2023-02-22T13:14:42;2.87;;;2.67;;
6131;SDS011;3097;42.692;23.278;2023-02-22T13:17:25;2.93;;;2.73;;
6131;SDS011;3097;42.692;23.278;2023-02-22T13:22:44;4.97;;;4.53;;
6131;SDS011;3097;42.692;23.278;2023-02-22T13:30:23;3.57;;;3.27;;
6131;SDS011;3097;42.692;23.278;2023-02-22T13:33:09;4.50;;;4.07;;
6131;SDS011;3097;42.692;23.278;2023-02-22T13:40:46;3.77;;;3.47;;
6131;SDS011;3097;42.692;23.278;2023-02-22T13:46:21;3.80;;;3.50;;
6131;SDS011;3097;42.692;23.278;2023-02-22T13:51:58;3.90;;;3.60;;
6131;SDS011;3097;42.692;23.278;2023-02-22T13:56:58;5.07;;;3.70;;
6131;SDS011;3097;42.692;23.278;2023-02-22T13:59:34;4.30;;;3.90;;
6131;SDS011;3097;42.692;23.278;2023-02-22T14:02:01;4.90;;;4.50;;
6131;SDS011;3097;42.692;23.278;2023-02-22T14:15:12;7.27;;;4.50;;
6131;SDS011;3097;42.692;23.278;2023-02-22T14:17:46;5.80;;;4.83;;
6131;SDS011;3097;42.692;23.278;2023-02-22T14:25:52;18.87;;;12.33;;
6131;SDS011;3097;42.692;23.278;2023-02-22T14:28:39;11.90;;;6.77;;
6131;SDS011;3097;42.692;23.278;2023-02-22T14:31:16;6.60;;;5.97;;
6131;SDS011;3097;42.692;23.278;2023-02-22T14:41:59;6.47;;;5.40;;
6131;SDS011;3097;42.692;23.278;2023-02-22T14:44:36;7.27;;;5.73;;
6131;SDS011;3097;42.692;23.278;2023-02-22T14:47:11;5.80;;;5.20;;
6131;SDS011;3097;42.692;23.278;2023-02-22T14:49:44;5.30;;;4.40;;
6131;SDS011;3097;42.692;23.278;2023-02-22T14:52:17;6.13;;;5.50;;
6131;SDS011;3097;42.692;23.278;2023-02-22T14:54:55;4.30;;;3.80;;
6131;SDS011;3097;42.692;23.278;2023-02-22T15:00:35;6.73;;;5.30;;
6131;SDS011;3097;42.692;23.278;2023-02-22T15:03:04;6.80;;;4.90;;
6131;SDS011;3097;42.692;23.278;2023-02-22T15:05:36;5.53;;;4.90;;
6131;SDS011;3097;42.692;23.278;2023-02-22T15:08:06;5.23;;;4.73;;
6131;SDS011;3097;42.692;23.278;2023-02-22T15:13:02;11.73;;;7.70;;
6131;SDS011;3097;42.692;23.278;2023-02-22T15:15:42;7.77;;;5.80;;
6131;SDS011;3097;42.692;23.278;2023-02-22T15:18:56;9.90;;;5.70;;
6131;SDS011;3097;42.692;23.278;2023-02-22T15:21:03;12.30;;;5.40;;
6131;SDS011;3097;42.692;23.278;2023-02-22T15:26:15;7.90;;;6.30;;
6131;SDS011;3097;42.692;23.278;2023-02-22T15:28:47;6.53;;;5.80;;
6131;SDS011;3097;42.692;23.278;2023-02-22T15:33:52;8.60;;;6.40;;
6131;SDS011;3097;42.692;23.278;2023-02-22T15:36:19;8.37;;;7.07;;
6131;SDS011;3097;42.692;23.278;2023-02-22T15:38:50;12.33;;;7.13;;
6131;SDS011;3097;42.692;23.278;2023-02-22T15:41:31;13.73;;;8.90;;
6131;SDS011;3097;42.692;23.278;2023-02-22T15:46:28;13.43;;;9.03;;
6131;SDS011;3097;42.692;23.278;2023-02-22T15:49:17;13.03;;;9.27;;
6131;SDS011;3097;42.692;23.278;2023-02-22T15:51:44;13.13;;;8.30;;
6131;SDS011;3097;42.692;23.278;2023-02-22T15:54:15;8.10;;;7.10;;
6131;SDS011;3097;42.692;23.278;2023-02-22T15:56:48;11.53;;;8.03;;
6131;SDS011;3097;42.692;23.278;2023-02-22T15:59:19;11.70;;;7.37;;
6131;SDS011;3097;42.692;23.278;2023-02-22T16:01:47;13.00;;;7.90;;
6131;SDS011;3097;42.692;23.278;2023-02-22T16:04:19;19.23;;;11.20;;
6131;SDS011;3097;42.692;23.278;2023-02-22T16:06:47;19.97;;;11.77;;
6131;SDS011;3097;42.692;23.278;2023-02-22T16:09:19;18.03;;;12.60;;
6131;SDS011;3097;42.692;23.278;2023-02-22T16:11:50;21.80;;;12.93;;
6131;SDS011;3097;42.692;23.278;2023-02-22T16:19:38;29.07;;;15.77;;
6131;SDS011;3097;42.692;23.278;2023-02-22T16:22:06;31.80;;;17.77;;
6131;SDS011;3097;42.692;23.278;2023-02-22T16:24:46;29.60;;;15.87;;
6131;SDS011;3097;42.692;23.278;2023-02-22T16:27:17;30.57;;;17.30;;
6131;SDS011;3097;42.692;23.278;2023-02-22T16:29:58;33.87;;;17.37;;
6131;SDS011;3097;42.692;23.278;2023-02-22T16:32:25;38.30;;;19.23;;
6131;SDS011;3097;42.692;23.278;2023-02-22T16:34:51;41.10;;;19.70;;
6131;SDS011;3097;42.692;23.278;2023-02-22T16:37:20;36.17;;;19.47;;
6131;SDS011;3097;42.692;23.278;2023-02-22T16:39:46;42.80;;;22.53;;
6131;SDS011;3097;42.692;23.278;2023-02-22T16:42:15;49.73;;;23.47;;
6131;SDS011;3097;42.692;23.278;2023-02-22T16:44:48;35.83;;;20.90;;
6131;SDS011;3097;42.692;23.278;2023-02-22T16:47:17;42.10;;;21.03;;
6131;SDS011;3097;42.692;23.278;2023-02-22T16:49:43;46.40;;;23.97;;
6131;SDS011;3097;42.692;23.278;2023-02-22T16:52:09;53.13;;;26.37;;
6131;SDS011;3097;42.692;23.278;2023-02-22T16:54:38;51.57;;;24.77;;
6131;SDS011;3097;42.692;23.278;2023-02-22T16:57:09;46.27;;;23.97;;
6131;SDS011;3097;42.692;23.278;2023-02-22T16:59:41;48.03;;;24.20;;
6131;SDS011;3097;42.692;23.278;2023-02-22T17:02:09;46.00;;;24.97;;
6131;SDS011;3097;42.692;23.278;2023-02-22T17:04:38;51.37;;;24.20;;
6131;SDS011;3097;42.692;23.278;2023-02-22T17:07:04;48.77;;;24.37;;
6131;SDS011;3097;42.692;23.278;2023-02-22T17:09:29;51.63;;;24.33;;
6131;SDS011;3097;42.692;23.278;2023-02-22T17:11:55;54.73;;;27.73;;
6131;SDS011;3097;42.692;23.278;2023-02-22T17:14:22;54.83;;;28.43;;
6131;SDS011;3097;42.692;23.278;2023-02-22T17:16:51;58.63;;;30.50;;
6131;SDS011;3097;42.692;23.278;2023-02-22T17:19:18;71.83;;;34.77;;
6131;SDS011;3097;42.692;23.278;2023-02-22T17:21:47;48.77;;;25.57;;
6131;SDS011;3097;42.692;23.278;2023-02-22T17:24:13;42.03;;;21.20;;